Time;durP1;ratioP1;P1;durP2;ratioP2;P2;SDS_P1;SDS_P2;PMS_P1;PMS_P2;Temp;Humidity;BMP_temperature;BMP_pressure;BME280_temperature;BME280_humidity;BME280_pressure;Samples;Min_cycle;Max_cycle;Signal;HPM_P1;HPM_P2
2020/12/12 00:01:37;;;;;;;24.10;5.50;;;10.30;99.90;;;;;;4993181;28;20213;-87
2020/12/12 00:04:04;;;;;;;15.57;5.13;;;10.30;99.90;;;;;;4992216;28;20263;-83
2020/12/12 00:06:31;;;;;;;24.50;6.60;;;10.30;99.90;;;;;;4992827;28;20227;-85
2020/12/12 00:08:58;;;;;;;20.50;5.97;;;10.40;99.90;;;;;;4992522;28;20676;-87
2020/12/12 00:11:24;;;;;;;15.03;4.90;;;10.40;99.90;;;;;;4993127;28;20708;-85
2020/12/12 00:13:51;;;;;;;25.87;5.33;;;10.50;99.90;;;;;;4993149;28;20205;-85
2020/12/12 00:16:18;;;;;;;20.67;6.40;;;10.50;99.90;;;;;;4992944;28;20205;-86
2020/12/12 00:18:45;;;;;;;20.00;6.27;;;10.50;99.90;;;;;;4992839;28;20260;-87
2020/12/12 00:21:12;;;;;;;24.00;4.77;;;10.40;99.90;;;;;;4991955;28;20656;-87
2020/12/12 00:23:39;;;;;;;14.70;4.50;;;10.30;99.90;;;;;;4992992;28;20750;-87
2020/12/12 00:26:06;;;;;;;21.87;5.10;;;10.30;99.90;;;;;;4992295;28;20204;-86
2020/12/12 00:28:35;;;;;;;18.97;4.77;;;10.30;99.90;;;;;;4992839;28;20209;-86
2020/12/12 00:31:02;;;;;;;13.70;4.53;;;10.30;99.90;;;;;;4992168;28;20711;-90
2020/12/12 00:33:29;;;;;;;22.10;5.07;;;10.20;99.90;;;;;;4992373;28;20633;-87
2020/12/12 00:35:55;;;;;;;12.87;3.50;;;10.20;99.90;;;;;;4992925;28;20673;-86
2020/12/12 00:38:22;;;;;;;12.23;4.00;;;10.20;99.90;;;;;;4993102;28;20209;-81
2020/12/12 00:40:57;;;;;;;11.93;4.13;;;10.20;99.90;;;;;;4994144;28;20259;-88
2020/12/12 00:43:23;;;;;;;10.67;3.40;;;10.20;99.90;;;;;;4993073;28;20300;-88
2020/12/12 00:45:50;;;;;;;13.73;3.00;;;10.20;99.90;;;;;;4992507;28;20259;-85
2020/12/12 00:48:17;;;;;;;10.30;2.97;;;10.20;99.90;;;;;;4991341;28;20244;-85
2020/12/12 00:50:45;;;;;;;8.57;3.13;;;10.20;99.90;;;;;;4992518;28;20291;-86
2020/12/12 00:53:11;;;;;;;7.63;2.47;;;10.20;99.90;;;;;;4992020;28;20219;-86
2020/12/12 00:55:38;;;;;;;10.33;2.83;;;10.20;99.90;;;;;;4991921;28;20259;-85
2020/12/12 00:58:05;;;;;;;10.43;2.10;;;10.20;99.90;;;;;;4991742;28;20271;-85
2020/12/12 01:00:33;;;;;;;9.87;2.97;;;10.20;99.90;;;;;;4991611;28;20680;-86
2020/12/12 01:03:00;;;;;;;7.23;2.63;;;10.20;99.90;;;;;;4991695;28;20220;-84
2020/12/12 01:05:26;;;;;;;7.60;2.17;;;10.30;99.90;;;;;;4992286;28;20213;-90
2020/12/12 01:07:53;;;;;;;6.67;1.90;;;10.20;99.90;;;;;;4992180;28;20213;-85
2020/12/12 01:10:19;;;;;;;5.27;1.83;;;10.30;99.90;;;;;;4992339;28;20271;-85
2020/12/12 01:12:46;;;;;;;8.10;2.40;;;10.20;99.90;;;;;;4991891;28;20621;-84
2020/12/12 01:15:13;;;;;;;6.87;2.13;;;10.20;99.90;;;;;;4991128;28;20212;-83
2020/12/12 01:17:40;;;;;;;11.60;3.17;;;10.10;99.90;;;;;;4991519;28;20255;-81
2020/12/12 01:20:06;;;;;;;7.33;2.23;;;10.00;99.90;;;;;;4991441;28;20287;-83
2020/12/12 01:22:33;;;;;;;10.83;2.63;;;10.00;99.90;;;;;;4991764;28;20282;-87
2020/12/12 01:24:59;;;;;;;9.67;3.53;;;10.00;99.90;;;;;;4991826;28;20213;-86
2020/12/12 01:27:26;;;;;;;9.27;2.63;;;10.00;99.90;;;;;;4991677;28;20259;-86
2020/12/12 01:29:52;;;;;;;11.50;3.43;;;10.00;99.90;;;;;;4991825;28;20209;-74
2020/12/12 01:32:20;;;;;;;11.90;2.90;;;10.00;99.90;;;;;;4991288;28;20283;-79
2020/12/12 01:34:46;;;;;;;7.97;2.53;;;10.00;99.90;;;;;;4991578;28;20219;-82
2020/12/12 01:37:13;;;;;;;13.63;2.83;;;10.00;99.90;;;;;;4990988;28;20679;-79
2020/12/12 01:39:39;;;;;;;10.47;2.87;;;10.00;99.90;;;;;;4991553;28;20212;-76
2020/12/12 01:42:06;;;;;;;13.73;3.43;;;10.10;99.90;;;;;;4991394;28;20209;-85
2020/12/12 01:44:32;;;;;;;9.13;2.67;;;10.10;99.90;;;;;;4991692;28;20543;-85
2020/12/12 01:47:00;;;;;;;9.93;2.17;;;10.10;99.90;;;;;;4991236;28;20209;-85
2020/12/12 01:49:28;;;;;;;7.20;2.40;;;10.10;99.90;;;;;;4991970;28;20205;-86
2020/12/12 01:51:54;;;;;;;8.23;2.33;;;10.00;99.90;;;;;;4991618;28;20783;-85
2020/12/12 01:54:21;;;;;;;8.37;1.80;;;10.00;99.90;;;;;;4992440;28;20201;-85
2020/12/12 01:56:49;;;;;;;7.13;2.80;;;10.00;99.90;;;;;;4991688;28;20240;-85
2020/12/12 01:59:16;;;;;;;4.33;1.57;;;10.00;99.90;;;;;;4991478;28;20263;-86
2020/12/12 02:01:46;;;;;;;3.30;1.70;;;10.00;99.90;;;;;;4991627;28;20212;-85
2020/12/12 02:04:18;;;;;;;6.97;2.27;;;10.00;99.90;;;;;;4991239;28;20585;-85
2020/12/12 02:06:45;;;;;;;6.77;2.00;;;9.90;99.90;;;;;;4991824;28;20213;-85
2020/12/12 02:09:14;;;;;;;4.43;1.53;;;9.90;99.90;;;;;;4990865;28;20223;-82
2020/12/12 02:11:41;;;;;;;4.53;1.00;;;10.00;99.90;;;;;;4991440;28;20734;-82
2020/12/12 02:14:10;;;;;;;3.73;1.50;;;10.10;99.90;;;;;;4990794;28;20201;-84
2020/12/12 02:16:54;;;;;;;3.17;0.60;;;10.10;99.90;;;;;;4991237;28;20216;-83
2020/12/12 02:19:21;;;;;;;1.80;0.70;;;10.20;99.90;;;;;;4991333;28;20236;-80
2020/12/12 02:21:55;;;;;;;3.37;0.80;;;10.20;99.90;;;;;;4991635;28;20217;-86
2020/12/12 02:24:22;;;;;;;2.10;0.60;;;10.10;99.90;;;;;;4991526;28;20201;-85
2020/12/12 02:26:48;;;;;;;10.30;1.60;;;10.10;99.90;;;;;;4994392;28;20208;-88
2020/12/12 02:29:16;;;;;;;4.87;0.93;;;10.10;99.90;;;;;;4994682;28;20205;-87
2020/12/12 02:31:42;;;;;;;2.20;0.60;;;10.10;99.90;;;;;;4994746;28;20279;-86
2020/12/12 02:34:09;;;;;;;2.23;0.60;;;10.20;99.90;;;;;;4994683;28;20244;-86
2020/12/12 02:36:37;;;;;;;2.33;0.63;;;10.20;99.90;;;;;;4994673;28;20741;-89
2020/12/12 02:39:07;;;;;;;4.10;0.90;;;10.20;99.90;;;;;;4994749;28;20209;-89
2020/12/12 02:41:33;;;;;;;3.00;0.90;;;10.20;99.90;;;;;;4994935;28;20220;-87
2020/12/12 02:44:00;;;;;;;2.40;1.33;;;10.20;99.90;;;;;;4994681;28;20264;-87
2020/12/12 02:46:26;;;;;;;15.27;1.97;;;10.10;99.90;;;;;;4994538;28;20236;-89
2020/12/12 02:48:53;;;;;;;5.83;1.40;;;10.10;99.90;;;;;;4994430;28;20208;-75
2020/12/12 02:51:20;;;;;;;6.87;1.80;;;10.10;99.90;;;;;;4994700;28;20237;-78
2020/12/12 02:53:47;;;;;;;5.60;1.20;;;10.10;99.90;;;;;;4994158;28;20208;-88
2020/12/12 02:56:15;;;;;;;4.53;1.17;;;10.10;99.90;;;;;;4994116;28;20267;-85
2020/12/12 02:58:42;;;;;;;2.43;0.90;;;10.00;99.90;;;;;;4994206;28;20209;-85
2020/12/12 03:01:08;;;;;;;2.70;1.17;;;10.00;99.90;;;;;;4993668;28;20636;-84
2020/12/12 03:03:35;;;;;;;3.63;0.97;;;10.10;99.90;;;;;;4993970;28;20208;-82
2020/12/12 03:06:02;;;;;;;4.63;0.77;;;10.10;99.90;;;;;;4994231;28;20251;-77
2020/12/12 03:08:29;;;;;;;4.30;1.03;;;10.00;99.90;;;;;;4993711;28;20209;-82
2020/12/12 03:10:56;;;;;;;4.77;1.40;;;10.00;99.90;;;;;;4992899;28;20205;-75
2020/12/12 03:13:23;;;;;;;3.73;0.80;;;10.00;99.90;;;;;;4993335;28;20267;-75
2020/12/12 03:15:50;;;;;;;2.30;0.90;;;9.90;99.90;;;;;;4994332;28;20213;-90
2020/12/12 03:18:17;;;;;;;1.80;0.83;;;10.00;99.90;;;;;;4995065;28;20597;-81
2020/12/12 03:20:44;;;;;;;3.13;0.80;;;9.90;99.90;;;;;;4994507;28;20267;-89
2020/12/12 03:23:11;;;;;;;2.13;0.90;;;9.90;99.90;;;;;;4993750;28;20212;-89
2020/12/12 03:25:39;;;;;;;2.97;0.73;;;9.90;99.90;;;;;;4993360;28;20675;-78
2020/12/12 03:28:05;;;;;;;3.20;0.77;;;9.90;99.90;;;;;;4992393;28;20680;-82
2020/12/12 03:30:33;;;;;;;2.17;0.50;;;9.80;99.90;;;;;;4992933;28;20723;-78
2020/12/12 03:32:59;;;;;;;0.70;0.30;;;9.80;99.90;;;;;;4992707;28;20651;-78
2020/12/12 03:35:27;;;;;;;2.57;0.70;;;9.80;99.90;;;;;;4993554;28;20263;-85
2020/12/12 03:37:55;;;;;;;1.47;0.60;;;9.80;99.90;;;;;;4986615;28;20204;-84
2020/12/12 03:40:23;;;;;;;2.77;0.50;;;9.80;99.90;;;;;;4993242;28;20252;-82
2020/12/12 03:42:51;;;;;;;2.77;0.60;;;9.80;99.90;;;;;;4993070;28;20217;-75
2020/12/12 03:45:17;;;;;;;2.53;0.50;;;9.80;99.90;;;;;;4992574;28;20212;-83
2020/12/12 03:47:45;;;;;;;1.93;0.67;;;9.70;99.90;;;;;;4992738;28;20260;-82
2020/12/12 03:50:11;;;;;;;1.47;0.30;;;9.70;99.90;;;;;;4992558;28;20201;-81
2020/12/12 03:52:38;;;;;;;1.43;0.40;;;9.70;99.90;;;;;;4993041;28;20233;-78
2020/12/12 03:55:04;;;;;;;3.10;0.67;;;9.80;99.90;;;;;;4992182;28;20200;-81
2020/12/12 03:57:31;;;;;;;2.40;0.70;;;9.80;99.90;;;;;;4992386;28;20208;-82
2020/12/12 03:59:57;;;;;;;2.67;0.67;;;9.90;99.90;;;;;;4992282;28;20205;-80
2020/12/12 04:02:24;;;;;;;2.83;0.53;;;9.90;99.90;;;;;;4992783;28;20200;-79
2020/12/12 04:04:51;;;;;;;1.23;0.50;;;9.90;99.90;;;;;;4992522;28;20213;-81
2020/12/12 04:07:18;;;;;;;3.73;0.60;;;9.90;99.90;;;;;;4992467;28;20201;-81
2020/12/12 04:09:44;;;;;;;1.40;0.60;;;9.90;99.90;;;;;;4992572;28;20259;-82
2020/12/12 04:12:10;;;;;;;1.90;0.57;;;9.90;99.90;;;;;;4991560;28;20225;-80
2020/12/12 04:14:37;;;;;;;4.17;0.77;;;9.90;99.90;;;;;;4992513;28;20209;-82
2020/12/12 04:17:03;;;;;;;3.43;0.73;;;9.90;99.90;;;;;;4992209;28;20672;-90
2020/12/12 04:19:30;;;;;;;3.13;1.10;;;9.90;99.90;;;;;;4993257;28;20209;-75
2020/12/12 04:21:57;;;;;;;2.37;0.80;;;9.90;99.90;;;;;;4992442;28;20209;-80
2020/12/12 04:24:23;;;;;;;5.47;1.00;;;9.90;99.90;;;;;;4992682;28;20237;-82
2020/12/12 04:26:50;;;;;;;7.43;1.47;;;9.90;99.90;;;;;;4992605;28;20279;-84
2020/12/12 04:29:17;;;;;;;4.20;0.93;;;9.80;99.90;;;;;;4992761;28;20260;-84
2020/12/12 04:31:43;;;;;;;2.43;0.87;;;9.80;99.90;;;;;;4992295;28;20236;-82
2020/12/12 04:34:10;;;;;;;3.47;1.03;;;9.90;99.90;;;;;;4991640;28;20209;-82
2020/12/12 04:36:36;;;;;;;5.40;1.37;;;9.80;99.90;;;;;;4991901;28;20255;-81
2020/12/12 04:39:04;;;;;;;7.13;1.53;;;9.80;99.90;;;;;;4991548;28;20743;-83
2020/12/12 04:41:34;;;;;;;6.30;0.93;;;9.80;99.90;;;;;;4992134;28;20742;-84
2020/12/12 04:44:00;;;;;;;4.47;1.40;;;9.80;99.90;;;;;;4991854;28;20209;-83
2020/12/12 04:46:28;;;;;;;10.27;2.07;;;9.80;99.90;;;;;;4991887;28;20208;-83
2020/12/12 04:48:54;;;;;;;6.63;1.20;;;9.80;99.90;;;;;;4991592;28;20217;-82
2020/12/12 04:51:21;;;;;;;4.20;0.77;;;9.80;99.90;;;;;;4991838;28;20228;-83
2020/12/12 04:53:49;;;;;;;5.47;1.53;;;9.80;99.90;;;;;;4991944;28;20267;-79
2020/12/12 04:56:23;;;;;;;3.40;1.07;;;9.80;99.90;;;;;;4991022;28;20262;-81
2020/12/12 04:58:51;;;;;;;5.70;1.20;;;9.80;99.90;;;;;;4992177;28;20216;-81
2020/12/12 05:01:18;;;;;;;6.73;0.77;;;9.80;99.90;;;;;;4991421;28;20271;-82
2020/12/12 05:03:45;;;;;;;4.53;1.00;;;9.80;99.90;;;;;;4991595;28;20815;-84
2020/12/12 05:06:11;;;;;;;2.87;0.40;;;9.80;99.90;;;;;;4991032;28;20743;-82
2020/12/12 05:08:38;;;;;;;5.63;0.90;;;9.70;99.90;;;;;;4991565;28;20216;-81
2020/12/12 05:11:05;;;;;;;5.20;0.90;;;9.60;99.90;;;;;;4991089;28;20205;-84
2020/12/12 05:13:33;;;;;;;4.20;0.80;;;9.40;99.90;;;;;;4991558;28;20201;-82
2020/12/12 05:16:00;;;;;;;5.03;1.90;;;9.40;99.90;;;;;;4991270;28;20213;-83
2020/12/12 05:18:26;;;;;;;1.47;0.73;;;9.40;99.90;;;;;;4991530;28;20208;-82
2020/12/12 05:20:53;;;;;;;7.17;1.47;;;9.50;99.90;;;;;;4991948;28;20283;-82
2020/12/12 05:23:21;;;;;;;5.33;1.27;;;9.50;99.90;;;;;;4991596;28;20229;-81
2020/12/12 05:25:49;;;;;;;5.07;1.30;;;9.60;99.90;;;;;;4992239;28;20267;-83
2020/12/12 05:28:18;;;;;;;9.07;1.53;;;9.60;99.90;;;;;;4991138;28;20243;-83
2020/12/12 05:30:46;;;;;;;6.30;1.27;;;9.60;99.90;;;;;;4991490;28;20212;-82
2020/12/12 05:33:15;;;;;;;2.53;0.70;;;9.60;99.90;;;;;;4991161;28;20237;-82
2020/12/12 05:35:41;;;;;;;3.70;1.20;;;9.60;99.90;;;;;;4990896;28;20627;-80
2020/12/12 05:38:09;;;;;;;3.63;1.10;;;9.70;99.90;;;;;;4990860;28;20208;-81
2020/12/12 05:40:37;;;;;;;3.07;1.27;;;9.60;99.90;;;;;;4991134;28;20209;-81
2020/12/12 05:43:04;;;;;;;5.40;1.10;;;9.50;99.90;;;;;;4991091;28;20588;-81
2020/12/12 05:45:30;;;;;;;4.30;1.57;;;9.40;99.90;;;;;;4991365;28;20213;-83
2020/12/12 05:47:58;;;;;;;2.30;0.93;;;9.30;99.90;;;;;;4991268;28;20200;-81
2020/12/12 05:50:25;;;;;;;9.87;1.80;;;9.20;99.90;;;;;;4991709;28;20644;-83
2020/12/12 05:52:53;;;;;;;2.63;0.83;;;9.20;99.90;;;;;;4991380;28;20228;-81
2020/12/12 05:55:22;;;;;;;6.23;1.30;;;9.20;99.90;;;;;;4991216;28;20219;-81
2020/12/12 05:57:51;;;;;;;2.43;0.80;;;9.20;99.90;;;;;;4991290;28;20580;-78
2020/12/12 06:00:19;;;;;;;5.40;1.00;;;9.20;99.90;;;;;;4992166;28;20213;-78
2020/12/12 06:02:52;;;;;;;3.93;1.33;;;9.30;99.90;;;;;;4994598;28;20212;-79
2020/12/12 06:05:24;;;;;;;3.30;1.20;;;9.40;99.90;;;;;;4994074;28;20556;-79
2020/12/12 06:07:54;;;;;;;3.07;1.00;;;9.40;99.90;;;;;;4994307;28;20746;-79
2020/12/12 06:10:25;;;;;;;8.70;1.23;;;9.40;99.90;;;;;;4994561;28;20295;-79
2020/12/12 06:12:57;;;;;;;5.73;1.57;;;9.50;99.90;;;;;;4990123;28;20239;-79
2020/12/12 06:15:33;;;;;;;3.60;1.87;;;9.60;99.90;;;;;;4981155;28;20669;-80
2020/12/12 06:18:15;;;;;;;4.17;1.03;;;9.60;99.90;;;;;;4994283;28;20236;-80
2020/12/12 06:20:45;;;;;;;4.70;1.33;;;9.50;99.90;;;;;;4994481;28;20209;-78
2020/12/12 06:23:11;;;;;;;5.63;1.37;;;9.40;99.90;;;;;;4993765;28;20271;-82
2020/12/12 06:25:38;;;;;;;3.13;1.07;;;9.30;99.90;;;;;;4994385;28;20209;-81
2020/12/12 06:28:07;;;;;;;4.60;1.20;;;9.20;99.90;;;;;;4994184;28;20217;-80
2020/12/12 06:30:35;;;;;;;3.40;1.27;;;9.20;99.90;;;;;;4993698;28;20217;-82
2020/12/12 06:33:04;;;;;;;3.20;1.83;;;9.20;99.90;;;;;;4994079;28;20286;-81
2020/12/12 06:35:34;;;;;;;5.23;1.00;;;9.30;99.90;;;;;;4993806;28;20263;-77
2020/12/12 06:38:23;;;;;;;7.73;1.80;;;9.30;99.90;;;;;;4993288;28;20743;-81
2020/12/12 06:40:51;;;;;;;7.37;1.70;;;9.30;99.90;;;;;;4994301;28;20213;-80
2020/12/12 06:43:32;;;;;;;4.63;0.93;;;9.20;99.90;;;;;;4994088;28;20217;-79
2020/12/12 06:46:00;;;;;;;7.67;1.37;;;9.10;99.90;;;;;;4993435;28;20205;-79
2020/12/12 06:48:28;;;;;;;3.20;1.00;;;9.10;99.90;;;;;;4994019;28;20209;-80
2020/12/12 06:50:56;;;;;;;1.83;0.97;;;9.10;99.90;;;;;;4993616;28;20341;-79
2020/12/12 06:53:24;;;;;;;5.03;1.23;;;9.10;99.90;;;;;;4994090;28;20286;-80
2020/12/12 06:56:14;;;;;;;3.07;1.13;;;9.00;99.90;;;;;;4994199;28;20213;-81
2020/12/12 06:58:41;;;;;;;9.57;1.20;;;8.90;99.90;;;;;;4987449;28;20208;-74
2020/12/12 07:01:27;;;;;;;6.23;1.53;;;8.90;99.90;;;;;;4990654;28;20205;-81
2020/12/12 07:04:01;;;;;;;6.47;2.60;;;8.80;99.90;;;;;;4990272;28;20209;-82
2020/12/12 07:06:29;;;;;;;4.60;1.43;;;8.80;99.90;;;;;;4993137;28;20260;-80
2020/12/12 07:09:01;;;;;;;8.13;1.63;;;8.90;99.90;;;;;;4993385;28;20216;-77
2020/12/12 07:11:28;;;;;;;3.27;1.20;;;9.00;99.90;;;;;;4992383;28;20680;-81
2020/12/12 07:13:55;;;;;;;5.70;1.40;;;8.90;99.90;;;;;;4993554;28;20205;-79
2020/12/12 07:16:22;;;;;;;5.43;1.17;;;8.90;99.90;;;;;;4993718;28;20259;-80
2020/12/12 07:18:49;;;;;;;3.87;1.10;;;8.90;99.90;;;;;;4990192;28;20205;-79
2020/12/12 07:21:16;;;;;;;8.67;1.77;;;9.00;99.90;;;;;;4990174;28;20223;-78
2020/12/12 07:23:43;;;;;;;4.00;1.50;;;9.10;99.90;;;;;;4990912;28;20217;-80
2020/12/12 07:26:10;;;;;;;5.57;1.43;;;8.90;99.90;;;;;;4991775;28;20205;-79
2020/12/12 07:28:37;;;;;;;7.30;3.03;;;8.90;99.90;;;;;;4992692;28;20680;-80
2020/12/12 07:31:03;;;;;;;11.13;2.30;;;9.10;99.90;;;;;;4991887;28;20310;-80
2020/12/12 07:33:30;;;;;;;6.37;1.83;;;9.10;99.90;;;;;;4992406;28;20232;-79
2020/12/12 07:35:57;;;;;;;4.47;2.43;;;9.10;99.90;;;;;;4992138;28;20739;-79
2020/12/12 07:38:23;;;;;;;5.83;2.40;;;9.20;99.90;;;;;;4992906;28;20259;-79
2020/12/12 07:40:50;;;;;;;6.30;1.60;;;9.30;99.90;;;;;;4993022;28;20216;-80
2020/12/12 07:43:18;;;;;;;13.70;2.47;;;9.30;99.90;;;;;;4992676;28;20216;-80
2020/12/12 07:45:55;;;;;;;6.70;2.23;;;9.20;99.90;;;;;;4992293;28;20213;-79
2020/12/12 07:48:22;;;;;;;9.00;2.20;;;9.20;99.90;;;;;;4992499;28;20283;-79
2020/12/12 07:50:49;;;;;;;13.20;1.63;;;9.20;99.90;;;;;;4992512;28;20212;-80
2020/12/12 07:53:17;;;;;;;6.40;1.93;;;9.30;99.90;;;;;;4990085;28;21174;-76
2020/12/12 07:55:56;;;;;;;7.23;3.00;;;9.20;99.90;;;;;;4992360;28;20237;-79
2020/12/12 07:58:26;;;;;;;7.33;2.77;;;9.20;99.90;;;;;;4984148;28;20250;-77
2020/12/12 08:00:57;;;;;;;11.90;2.23;;;9.20;99.90;;;;;;4989482;28;20212;-78
2020/12/12 08:03:23;;;;;;;9.60;2.20;;;9.20;99.90;;;;;;4990863;28;20295;-75
2020/12/12 08:05:50;;;;;;;11.30;2.20;;;9.30;99.90;;;;;;4989482;28;20209;-76
2020/12/12 08:08:16;;;;;;;7.80;2.63;;;9.40;99.90;;;;;;4991230;28;20213;-76
2020/12/12 08:10:43;;;;;;;14.90;2.20;;;9.40;99.90;;;;;;4991747;28;20280;-75
2020/12/12 08:13:10;;;;;;;9.40;2.37;;;9.40;99.90;;;;;;4990404;28;20232;-76
2020/12/12 08:15:40;;;;;;;9.37;2.77;;;9.30;99.90;;;;;;4991949;28;20680;-76
2020/12/12 08:18:11;;;;;;;12.80;2.80;;;9.30;99.90;;;;;;4991127;28;20263;-76
2020/12/12 08:20:38;;;;;;;12.27;2.57;;;9.30;99.90;;;;;;4992248;28;20586;-76
2020/12/12 08:23:05;;;;;;;7.87;2.47;;;9.30;99.90;;;;;;4990495;28;20217;-76
2020/12/12 08:25:34;;;;;;;5.77;3.03;;;9.40;99.90;;;;;;4992007;28;20209;-76
2020/12/12 08:28:05;;;;;;;6.63;2.27;;;9.50;99.90;;;;;;4991526;28;20217;-76
2020/12/12 08:30:32;;;;;;;7.93;2.37;;;9.70;99.90;;;;;;4991471;28;20208;-76
2020/12/12 08:33:09;;;;;;;16.67;2.20;;;10.10;99.90;;;;;;4991295;28;20290;-77
2020/12/12 08:35:35;;;;;;;6.17;2.50;;;10.30;99.90;;;;;;4990366;28;20578;-76
2020/12/12 08:38:04;;;;;;;10.63;2.63;;;10.20;99.90;;;;;;4991253;28;20631;-77
2020/12/12 08:40:33;;;;;;;6.63;2.10;;;10.10;99.90;;;;;;4991490;28;20296;-76
2020/12/12 08:43:05;;;;;;;9.40;1.97;;;10.00;99.90;;;;;;4990843;28;20680;-76
2020/12/12 08:45:31;;;;;;;12.30;3.10;;;9.80;99.90;;;;;;4988276;28;20255;-76
2020/12/12 08:48:07;;;;;;;10.63;2.20;;;9.70;99.90;;;;;;4990603;28;20235;-77
2020/12/12 08:50:44;;;;;;;7.53;2.87;;;9.60;99.90;;;;;;4991383;28;20208;-76
2020/12/12 08:53:22;;;;;;;11.00;2.33;;;9.60;99.90;;;;;;4990300;28;20279;-76
2020/12/12 08:56:12;;;;;;;9.63;2.17;;;9.70;99.90;;;;;;4991776;28;20208;-78
2020/12/12 08:58:41;;;;;;;12.30;2.10;;;9.90;99.90;;;;;;4981930;28;20208;-75
2020/12/12 09:01:16;;;;;;;11.07;3.27;;;10.00;99.90;;;;;;4990314;28;20213;-75
2020/12/12 09:03:57;;;;;;;10.13;2.33;;;10.10;99.90;;;;;;4991276;28;20342;-75
2020/12/12 09:06:25;;;;;;;11.77;2.60;;;10.20;99.90;;;;;;4991210;28;20212;-75
2020/12/12 09:09:12;;;;;;;11.03;3.17;;;10.20;99.90;;;;;;4991733;28;20208;-74
2020/12/12 09:11:39;;;;;;;9.10;3.03;;;10.10;99.90;;;;;;4988938;28;20209;-75
2020/12/12 09:14:07;;;;;;;9.80;2.23;;;10.00;99.90;;;;;;4990336;28;20205;-75
2020/12/12 09:16:33;;;;;;;13.37;3.63;;;10.00;99.90;;;;;;4990746;28;20205;-75
2020/12/12 09:19:01;;;;;;;7.17;2.73;;;10.00;99.90;;;;;;4990670;28;20221;-75
2020/12/12 09:21:31;;;;;;;8.80;3.93;;;10.10;99.90;;;;;;4990758;28;20212;-75
2020/12/12 09:23:57;;;;;;;12.50;3.23;;;10.20;99.90;;;;;;4990364;28;20216;-75
2020/12/12 09:26:24;;;;;;;10.90;2.40;;;10.50;99.90;;;;;;4991119;28;20201;-76
2020/12/12 09:28:50;;;;;;;10.30;1.87;;;10.60;99.90;;;;;;4991190;28;20259;-75
2020/12/12 09:31:18;;;;;;;7.43;2.60;;;10.60;99.90;;;;;;4990448;28;20205;-76
2020/12/12 09:33:45;;;;;;;10.27;2.10;;;10.60;99.90;;;;;;4990966;28;20229;-75
2020/12/12 09:36:12;;;;;;;10.50;2.40;;;10.70;99.90;;;;;;4994000;28;20628;-76
2020/12/12 09:38:39;;;;;;;8.30;2.57;;;12.20;99.90;;;;;;4994887;28;20259;-75
2020/12/12 09:41:05;;;;;;;7.27;3.03;;;13.80;99.90;;;;;;4994295;28;20208;-75
2020/12/12 09:43:32;;;;;;;10.53;3.33;;;14.20;99.90;;;;;;4994425;28;20566;-76
2020/12/12 09:45:59;;;;;;;10.23;2.60;;;14.70;99.90;;;;;;4993927;28;20232;-76
2020/12/12 09:48:25;;;;;;;7.07;2.38;;;15.20;99.90;;;;;;4993740;28;20259;-73
2020/12/12 09:50:52;;;;;;;7.35;2.13;;;13.70;99.90;;;;;;4994352;28;20209;-74
2020/12/12 09:53:19;;;;;;;6.90;2.67;;;12.20;99.90;;;;;;4994603;28;20649;-74
2020/12/12 09:55:46;;;;;;;13.63;3.33;;;12.10;99.90;;;;;;4994344;28;20259;-73
2020/12/12 09:58:13;;;;;;;7.97;3.17;;;11.60;99.90;;;;;;4993657;28;20212;-74
2020/12/12 10:00:40;;;;;;;17.73;3.15;;;11.10;99.90;;;;;;4994422;28;20206;-73
2020/12/12 10:03:07;;;;;;;12.00;3.55;;;12.30;99.90;;;;;;4993590;28;20263;-73
2020/12/12 10:05:35;;;;;;;8.30;2.35;;;14.20;99.90;;;;;;4994074;28;20692;-73
2020/12/12 10:08:01;;;;;;;11.02;2.00;;;15.00;99.90;;;;;;4994059;28;20241;-74
2020/12/12 10:10:29;;;;;;;7.57;2.92;;;16.20;99.90;;;;;;4994352;28;20287;-74
2020/12/12 10:12:56;;;;;;;9.32;2.03;;;16.10;99.90;;;;;;4994346;28;20232;-74
2020/12/12 10:15:23;;;;;;;8.35;2.58;;;15.00;99.90;;;;;;4993810;28;20228;-73
2020/12/12 10:17:50;;;;;;;9.80;2.92;;;15.60;99.90;;;;;;4994758;28;20260;-74
2020/12/12 10:20:17;;;;;;;7.78;1.85;;;16.20;99.90;;;;;;4993673;28;20555;-73
2020/12/12 10:22:44;;;;;;;6.25;2.17;;;15.20;99.90;;;;;;4990704;28;20220;-73
2020/12/12 10:25:10;;;;;;;8.95;2.40;;;14.20;99.90;;;;;;4993323;28;20259;-74
2020/12/12 10:27:38;;;;;;;6.22;1.75;;;13.90;99.90;;;;;;4993469;28;20213;-74
2020/12/12 10:30:07;;;;;;;7.22;2.40;;;13.40;99.90;;;;;;4993369;28;20208;-74
2020/12/12 10:32:33;;;;;;;8.85;2.08;;;14.60;99.90;;;;;;4993948;28;20228;-74
2020/12/12 10:35:00;;;;;;;6.78;3.40;;;14.00;99.90;;;;;;4992111;28;20276;-75
2020/12/12 10:37:26;;;;;;;7.10;2.42;;;15.10;99.90;;;;;;4993814;28;20267;-74
2020/12/12 10:39:56;;;;;;;8.20;2.60;;;15.60;99.90;;;;;;4993544;28;20628;-74
2020/12/12 10:42:23;;;;;;;6.55;2.25;;;13.60;99.90;;;;;;4993631;28;20211;-74
2020/12/12 10:44:50;;;;;;;12.88;3.00;;;12.20;99.90;;;;;;4994150;28;20263;-74
2020/12/12 10:47:17;;;;;;;5.93;2.05;;;11.70;99.90;;;;;;4992337;28;20213;-75
2020/12/12 10:49:43;;;;;;;12.27;2.50;;;11.40;99.90;;;;;;4993167;28;20209;-75
2020/12/12 10:52:10;;;;;;;8.27;2.20;;;11.50;99.90;;;;;;4993108;28;20283;-75
2020/12/12 10:54:37;;;;;;;8.50;1.95;;;11.50;99.90;;;;;;4993220;28;20205;-76
2020/12/12 10:57:04;;;;;;;7.50;2.03;;;11.50;99.90;;;;;;4992188;28;20244;-74
2020/12/12 10:59:30;;;;;;;6.38;2.17;;;11.50;99.90;;;;;;4993487;28;20262;-75
2020/12/12 11:01:58;;;;;;;6.17;2.00;;;11.60;99.90;;;;;;4993161;28;20263;-76
2020/12/12 11:04:24;;;;;;;9.70;1.93;;;11.60;99.90;;;;;;4993344;28;20205;-76
2020/12/12 11:06:51;;;;;;;13.10;2.17;;;11.70;99.90;;;;;;4985557;28;20216;-75
2020/12/12 11:09:18;;;;;;;7.67;2.33;;;12.30;99.90;;;;;;4992914;28;20676;-75
2020/12/12 11:11:45;;;;;;;7.23;2.23;;;12.40;99.90;;;;;;4990996;28;20205;-75
2020/12/12 11:14:12;;;;;;;6.93;2.38;;;12.40;99.90;;;;;;4992342;28;20630;-75
2020/12/12 11:16:38;;;;;;;18.67;4.00;;;12.70;99.90;;;;;;4992962;28;20213;-75
2020/12/12 11:19:05;;;;;;;8.73;2.85;;;12.50;99.90;;;;;;4992461;28;20259;-76
2020/12/12 11:21:32;;;;;;;8.27;3.70;;;12.40;99.90;;;;;;4992917;28;20270;-75
2020/12/12 11:23:59;;;;;;;6.83;1.80;;;12.30;99.90;;;;;;4992524;28;20220;-77
2020/12/12 11:26:26;;;;;;;8.87;2.50;;;12.00;99.90;;;;;;4992706;28;20205;-75
2020/12/12 11:28:53;;;;;;;13.83;2.47;;;11.70;99.90;;;;;;4992884;28;20205;-76
2020/12/12 11:31:21;;;;;;;8.27;2.93;;;11.70;99.90;;;;;;4992423;28;20205;-75
2020/12/12 11:33:51;;;;;;;13.67;3.10;;;11.50;99.90;;;;;;4992774;28;20229;-75
2020/12/12 11:36:42;;;;;;;11.67;3.30;;;11.40;99.90;;;;;;4990293;28;20208;-75
2020/12/12 11:39:13;;;;;;;7.60;2.87;;;11.50;99.90;;;;;;4991386;28;20323;-76
2020/12/12 11:42:00;;;;;;;14.63;4.57;;;11.50;99.90;;;;;;4992642;28;20200;-75
2020/12/12 11:44:47;;;;;;;11.77;3.57;;;11.50;99.90;;;;;;4989685;28;20712;-77
2020/12/12 11:47:13;;;;;;;11.67;2.97;;;11.30;99.90;;;;;;4991996;28;20209;-75
2020/12/12 11:49:41;;;;;;;9.30;2.50;;;11.40;99.90;;;;;;4992533;28;20632;-75
2020/12/12 11:52:09;;;;;;;7.60;3.00;;;11.50;99.90;;;;;;4992352;28;20228;-77
2020/12/12 11:54:35;;;;;;;9.67;2.53;;;11.30;99.90;;;;;;4991961;28;20255;-76
2020/12/12 11:57:04;;;;;;;6.23;3.63;;;11.20;99.90;;;;;;4991724;28;20213;-76
2020/12/12 11:59:31;;;;;;;8.80;2.80;;;11.00;99.90;;;;;;4992199;28;20219;-77
2020/12/12 12:01:58;;;;;;;15.93;3.50;;;11.00;99.90;;;;;;4992321;28;20212;-76
2020/12/12 12:04:24;;;;;;;9.00;2.03;;;11.30;99.90;;;;;;4992364;28;20205;-75
2020/12/12 12:06:51;;;;;;;5.53;2.60;;;12.00;99.90;;;;;;4982197;28;20209;-76
2020/12/12 12:09:24;;;;;;;6.17;1.60;;;12.40;99.90;;;;;;4992002;28;20217;-76
2020/12/12 12:11:52;;;;;;;15.33;3.10;;;12.30;99.90;;;;;;4992441;28;20673;-75
2020/12/12 12:14:18;;;;;;;9.53;2.37;;;12.30;99.90;;;;;;4991987;28;20646;-75
2020/12/12 12:16:45;;;;;;;10.60;3.33;;;12.10;99.90;;;;;;4991335;28;20209;-76
2020/12/12 12:19:13;;;;;;;13.10;4.63;;;12.00;99.90;;;;;;4991300;28;20632;-75
2020/12/12 12:21:40;;;;;;;11.43;2.90;;;11.90;99.90;;;;;;4991877;28;20219;-76
2020/12/12 12:24:08;;;;;;;8.40;2.90;;;11.80;99.90;;;;;;4991209;28;20590;-75
2020/12/12 12:26:36;;;;;;;9.73;2.17;;;11.60;99.90;;;;;;4991972;28;20267;-78
2020/12/12 12:29:03;;;;;;;15.80;2.83;;;11.40;99.90;;;;;;4991258;28;20205;-79
2020/12/12 12:31:30;;;;;;;8.43;3.00;;;11.10;99.90;;;;;;4991826;28;20209;-76
2020/12/12 12:33:56;;;;;;;6.23;2.23;;;10.90;99.90;;;;;;4991308;28;20225;-75
2020/12/12 12:36:24;;;;;;;14.23;3.03;;;10.90;99.90;;;;;;4991391;28;20267;-76
2020/12/12 12:38:51;;;;;;;12.87;2.77;;;11.00;99.90;;;;;;4989455;28;20212;-75
2020/12/12 12:41:18;;;;;;;12.20;3.20;;;11.10;99.90;;;;;;4989122;28;20209;-75
2020/12/12 12:43:46;;;;;;;6.20;2.03;;;11.20;99.90;;;;;;4990888;28;20209;-75
2020/12/12 12:46:13;;;;;;;11.43;3.83;;;11.10;99.90;;;;;;4985890;28;20212;-75
2020/12/12 12:48:40;;;;;;;41.27;19.40;;;10.90;99.90;;;;;;4990454;28;20209;-76
2020/12/12 12:51:07;;;;;;;62.37;37.13;;;10.90;99.90;;;;;;4990249;28;20263;-76
2020/12/12 12:53:33;;;;;;;78.93;48.20;;;10.70;99.90;;;;;;4990161;28;20237;-75